Latest Weather Observations for Melbourne Airport

IDV60801

Issued at 5:22 am EDT Tuesday 15 October 2019 (issued every 10 minutes, with the page automatically refreshed every 10 minutes)

About weather observations | Map of weather stations | Latest weather observations for VIC | Other Formats
Station Details ID: 086282 Name: MELBOURNE AIRPORT Lat: -37.67 Lon: 144.83 Height: 113.4 m
Data from the previous 72 hours. | See also: Recent months at Melbourne Airport
Date/Time
EDT
Temp
°C
App
Temp
°C
Dew
Point
°C
Rel
Hum
%
Delta-T
°C
Wind Press
QNH
hPa
Press
MSL
hPa
Rain since
9am
mm
Dir  Spd
km/h
Gust
km/h
Spd
kts
Gust
kts
15/05:00am 10.9 8.0 9.5 91 0.7 SW 15 22 8 12 1014.1 1014.0 0.2
15/04:47am 11.0 8.5 9.6 91 0.7 SW 13 17 7 9 1014.2 1014.1 0.2
15/04:30am 11.1 9.3 10.7 97 0.2 SSW 11 15 6 8 1014.3 1014.3 0.2
15/04:00am 11.3 9.1 10.9 97 0.2 SSW 13 19 7 10 1014.4 1014.4 0.2
15/03:30am 11.6 9.5 11.2 97 0.2 S 13 17 7 9 1014.5 1014.5 0.2
15/03:00am 11.6 9.6 11.4 99 0.1 S 13 17 7 9 1014.8 1014.8 0.0
15/02:30am 11.9 9.8 11.1 95 0.4 S 13 15 7 8 1014.8 1014.8 0.0
15/02:26am 12.0 10.2 11.0 94 0.5 S 11 15 6 8 1014.9 1014.9 0.0
15/02:00am 12.3 9.3 10.8 90 0.8 S 17 20 9 11 1015.0 1015.0 0.0
15/01:30am 12.8 10.1 10.5 86 1.2 SSE 15 20 8 11 1015.3 1015.3 0.0
15/01:00am 12.7 10.7 11.4 92 0.7 SSE 13 17 7 9 1015.4 1015.4 0.0
15/12:30am 12.7 11.1 11.6 93 0.6 S 11 15 6 8 1015.5 1015.5 0.0
15/12:00am 12.7 10.7 11.6 93 0.6 S 13 17 7 9 1015.6 1015.6 0.0
 
Date/Time
EDT
Temp
°C
App
Temp
°C
Dew
Point
°C
Rel
Hum
%
Delta-T
°C
Wind Press
QNH
hPa
Press
MSL
hPa
Rain since
9am
mm
Dir  Spd
km/h
Gust
km/h
Spd
kts
Gust
kts
14/11:48pm 12.7 10.9 12.0 95 0.4 SSE 13 17 7 9 1015.6 1015.6 0.0
14/11:30pm 12.8 10.5 11.9 94 0.5 SSE 15 20 8 11 1015.5 1015.5 0.0
14/11:00pm 13.6 10.7 11.0 84 1.4 SSE 17 22 9 12 1015.4 1015.4 0.0
14/10:30pm 13.6 10.6 10.8 83 1.5 SSE 17 20 9 11 1015.4 1015.4 0.0
14/10:00pm 13.7 10.7 10.5 81 1.7 S 17 24 9 13 1015.2 1015.2 0.0
14/09:30pm 13.8 10.7 10.2 79 1.9 SSE 17 22 9 12 1015.1 1015.1 0.0
14/09:00pm 14.0 10.5 10.2 78 2.0 S 19 28 10 15 1014.7 1014.7 0.0
14/08:30pm 14.0 10.4 10.0 77 2.1 S 19 26 10 14 1014.2 1014.1 0.0
14/08:00pm 13.7 10.0 10.3 80 1.8 S 20 28 11 15 1013.9 1013.8 0.0
14/07:30pm 14.3 10.2 10.1 76 2.2 S 22 30 12 16 1013.3 1013.2 0.0
14/07:00pm 15.2 11.8 10.5 73 2.5 S 19 28 10 15 1012.8 1012.7 0.0
14/06:30pm 15.6 12.1 10.9 73 2.5 S 20 28 11 15 1012.3 1012.2 0.0
14/06:00pm 16.4 12.1 10.8 69 3.0 S 24 35 13 19 1011.9 1011.8 0.0
14/05:30pm 18.8 14.0 11.6 63 4.0 S 28 35 15 19 1011.4 1011.3 0.0
14/05:00pm 19.9 15.3 9.6 51 5.5 SSE 24 32 13 17 1011.0 1010.9 0.0
14/04:30pm 20.2 14.5 8.4 46 6.2 S 28 33 15 18 1010.7 1010.6 0.0
14/04:00pm 24.5 18.7 4.3 27 10.1 NNW 24 37 13 20 1010.3 1010.2 0.0
14/03:30pm 24.5 18.2 5.5 29 9.7 N 28 35 15 19 1010.3 1010.2 0.0
14/03:00pm 24.3 18.2 6.4 31 9.3 N 28 35 15 19 1010.6 1010.5 0.0
14/02:30pm 24.2 18.0 6.2 31 9.3 NNW 28 41 15 22 1011.0 1010.9 0.0
14/02:02pm 25.4 19.5 7.6 32 9.5 N 28 48 15 26 1011.4 1011.3 0.0
14/02:00pm 24.2 18.5 6.5 32 9.2 N 26 37 14 20 1011.4 1011.3 0.0
14/01:30pm 24.1 18.5 7.1 33 8.9 NNE 26 35 14 19 1011.7 1011.6 0.0
14/01:00pm 23.3 16.4 6.4 33 8.7 N 32 44 17 24 1012.2 1012.1 0.0
14/12:44pm 23.5 17.4 6.7 34 8.7 N 28 46 15 25 1012.4 1012.3 0.0
14/12:30pm 23.0 16.7 5.9 33 8.7 N 28 39 15 21 1012.5 1012.4 0.0
14/12:00pm 21.9 15.9 7.2 38 7.6 N 28 39 15 21 1013.1 1013.0 0.0
14/11:30am 19.5 12.7 7.1 44 6.3 N 32 41 17 22 1013.4 1013.3 0.0
14/11:00am 18.4 13.0 6.4 45 6.0 N 24 32 13 17 1013.7 1013.6 0.0
14/10:30am 17.7 10.7 6.7 48 5.5 N 33 43 18 23 1013.7 1013.6 0.0
14/10:18am 17.5 10.0 6.4 48 5.5 N 35 50 19 27 1013.7 1013.6 0.0
14/10:00am 17.6 12.1 5.8 46 5.8 N 24 32 13 17 1013.8 1013.7 0.0
14/09:30am 17.2 10.7 6.3 48 5.4 N 30 39 16 21 1013.5 1013.4 0.0
14/09:00am 16.6 10.9 6.7 52 4.9 NNW 26 33 14 18 1013.6 1013.5 0.4
14/08:30am 16.2 11.5 6.2 51 4.9 NNW 20 26 11 14 1013.6 1013.5 0.4
14/08:00am 15.3 10.7 6.5 55 4.3 N 20 30 11 16 1013.5 1013.4 0.4
14/07:30am 13.6 9.8 7.5 66 3.0 N 17 24 9 13 1013.4 1013.3 0.4
14/07:00am 13.1 10.5 7.9 70 2.6 N 11 19 6 10 1013.4 1013.3 0.4
14/06:30am 13.1 11.4 8.5 73 2.3 NNW 7 11 4 6 1013.0 1012.9 0.4
14/06:00am 12.9 11.1 9.4 79 1.8 N 9 15 5 8 1013.0 1012.9 0.4
14/05:30am 13.1 13.2 10.0 81 1.6 CALM 0 0 0 0 1013.0 1012.9 0.4
14/05:00am 12.8 11.8 10.3 85 1.3 S 6 7 3 4 1012.9 1012.8 0.4
14/04:30am 14.1 13.4 8.6 69 2.8 WSW 2 7 1 4 1013.0 1012.9 0.4
14/04:00am 14.1 13.1 9.0 71 2.6 N 4 9 2 5 1012.8 1012.7 0.4
14/03:30am 13.5 11.5 10.0 79 1.8 N 11 17 6 9 1012.9 1012.8 0.4
14/03:00am 14.9 11.6 7.9 63 3.5 NNW 15 24 8 13 1012.8 1012.7 0.2
14/02:30am 13.3 10.7 10.6 84 1.4 NNE 15 19 8 10 1013.0 1012.9 0.2
14/02:00am 15.0 10.5 8.5 65 3.3 N 22 30 12 16 1013.3 1013.2 0.0
14/01:30am 17.4 10.2 4.9 43 6.0 N 32 39 17 21 1013.4 1013.3 0.0
14/01:00am 17.0 10.6 5.2 45 5.7 N 28 41 15 22 1013.2 1013.1 0.0
14/12:30am 16.8 10.9 5.7 48 5.4 N 26 35 14 19 1012.8 1012.7 0.0
14/12:00am 15.9 12.2 6.3 53 4.7 N 15 20 8 11 1013.0 1012.9 0.0
 
Date/Time
EDT
Temp
°C
App
Temp
°C
Dew
Point
°C
Rel
Hum
%
Delta-T
°C
Wind Press
QNH
hPa
Press
MSL
hPa
Rain since
9am
mm
Dir  Spd
km/h
Gust
km/h
Spd
kts
Gust
kts
13/11:30pm 15.3 13.3 7.0 57 4.1 ENE 7 13 4 7 1013.4 1013.3 0.0
13/11:00pm 15.8 13.0 6.9 55 4.4 ENE 11 17 6 9 1013.7 1013.6 0.0
13/10:30pm 16.1 12.8 6.6 53 4.7 NNE 13 19 7 10 1013.9 1013.8 0.0
13/10:00pm 15.4 12.2 6.9 57 4.2 NNE 13 17 7 9 1014.2 1014.1 0.0
13/09:30pm 16.3 12.7 6.8 53 4.7 NNE 15 20 8 11 1014.5 1014.5 0.0
13/09:00pm 16.4 13.3 7.2 54 4.6 NNE 13 19 7 10 1014.7 1014.7 0.0
13/08:30pm 17.9 13.5 6.7 48 5.6 NE 19 26 10 14 1014.4 1014.4 0.0
13/08:00pm 17.6 13.6 6.5 48 5.5 NE 17 22 9 12 1014.2 1014.1 0.0
13/07:30pm 18.5 13.0 6.0 44 6.2 NNE 24 33 13 18 1014.3 1014.3 0.0
13/07:00pm 19.7 15.0 6.1 41 6.8 NNE 20 30 11 16 1014.3 1014.3 0.0
13/06:30pm 20.7 14.7 5.4 36 7.6 N 26 33 14 18 1014.5 1014.5 0.0
13/06:00pm 21.0 14.6 5.0 35 7.9 N 28 37 15 20 1014.5 1014.5 0.0
13/05:30pm 21.5 14.3 4.9 33 8.2 N 32 46 17 25 1014.5 1014.5 0.0
13/05:00pm 21.5 14.2 4.3 32 8.4 N 32 41 17 22 1014.7 1014.7 0.0
13/04:30pm 22.2 14.8 5.2 33 8.5 N 33 48 18 26 1014.9 1014.9 0.0
13/04:00pm 21.6 14.4 5.9 36 7.9 N 33 39 18 21 1015.1 1015.1 0.0
13/03:30pm 21.4 14.2 5.9 36 7.8 N 33 48 18 26 1015.8 1015.8 0.0
13/03:00pm 21.4 14.5 7.3 40 7.3 N 33 44 18 24 1016.3 1016.3 0.0
13/02:30pm 20.7 13.9 7.8 43 6.7 N 33 41 18 22 1016.8 1016.8 0.0
13/02:00pm 19.2 12.4 7.7 47 5.9 N 33 41 18 22 1017.3 1017.3 0.0
13/01:30pm 19.5 13.1 8.4 48 5.8 N 32 43 17 23 1017.0 1017.0 0.0
13/01:00pm 17.8 11.0 7.6 51 5.2 N 33 44 18 24 1017.1 1017.1 0.0
13/12:30pm 18.2 10.6 7.6 50 5.4 N 37 48 20 26 1017.3 1017.3 0.0
13/12:00pm 17.0 9.0 7.5 53 4.8 N 39 48 21 26 1017.5 1017.5 0.0
13/11:30am 16.9 9.7 7.6 54 4.7 N 35 48 19 26 1017.8 1017.8 0.0
13/11:00am 16.5 9.2 7.1 53 4.7 N 35 46 19 25 1017.9 1017.9 0.0
13/10:30am 16.7 8.6 7.1 53 4.8 N 39 54 21 29 1018.3 1018.2 0.0
13/10:00am 14.5 5.9 6.7 59 3.8 N 41 54 22 29 1018.5 1018.4 0.0
13/09:30am 15.5 6.0 6.5 55 4.4 N 46 59 25 32 1018.6 1018.5 0.0
13/09:00am 14.1 5.8 6.2 59 3.8 N 39 52 21 28 1018.2 1018.1 0.2
13/08:30am 13.3 5.8 6.2 62 3.4 N 35 43 19 23 1018.2 1018.1 0.2
13/08:00am 12.4 5.8 6.1 65 3.0 N 30 37 16 20 1018.3 1018.2 0.2
13/07:30am 11.0 4.8 6.1 72 2.3 N 28 33 15 18 1018.3 1018.2 0.2
13/07:00am 10.1 4.3 6.2 77 1.8 N 26 30 14 16 1018.2 1018.1 0.2
13/06:30am 9.6 4.1 5.9 78 1.7 N 24 32 13 17 1017.8 1017.8 0.2
13/06:00am 9.3 4.7 5.8 79 1.6 N 19 22 10 12 1017.5 1017.5 0.2
13/05:30am 8.0 3.8 5.8 86 1.0 N 17 19 9 10 1017.3 1017.3 0.2
13/05:00am 8.2 4.7 5.3 82 1.3 N 13 17 7 9 1017.5 1017.5 0.2
13/04:30am 6.6 3.8 5.2 91 0.6 N 9 11 5 6 1017.5 1017.5 0.2
13/04:00am 6.3 3.1 5.2 93 0.5 N 11 13 6 7 1017.8 1017.8 0.2
13/03:30am 7.5 4.1 5.7 88 0.8 N 13 15 7 8 1018.3 1018.2 0.2
13/03:00am 7.9 4.5 5.9 87 0.9 N 13 15 7 8 1018.8 1018.7 0.2
13/02:30am 8.3 4.6 6.3 87 0.9 N 15 17 8 9 1019.1 1019.0 0.2
13/02:00am 8.5 4.9 6.6 88 0.9 N 15 17 8 9 1019.4 1019.3 0.2
13/01:30am 7.9 5.0 6.4 90 0.7 N 11 15 6 8 1019.7 1019.6 0.2
13/01:00am 8.5 6.1 6.8 89 0.8 N 9 13 5 7 1019.6 1019.5 0.2
13/12:30am 9.0 7.2 7.3 89 0.8 NW 6 9 3 5 1019.7 1019.6 0.2
13/12:00am 8.6 6.1 6.7 88 0.9 WNW 9 11 5 6 1019.9 1019.8 0.2
 
Date/Time
EDT
Temp
°C
App
Temp
°C
Dew
Point
°C
Rel
Hum
%
Delta-T
°C
Wind Press
QNH
hPa
Press
MSL
hPa
Rain since
9am
mm
Dir  Spd
km/h
Gust
km/h
Spd
kts
Gust
kts
12/11:30pm 9.5 8.8 7.0 84 1.2 CALM 0 6 0 3 1019.6 1019.5 0.2
12/11:00pm 12.0 9.7 7.5 74 2.2 E 9 11 5 6 1019.1 1019.0 0.2
12/10:30pm 11.2 10.5 7.0 75 2.0 CALM 0 0 0 0 1019.4 1019.3 0.2
12/10:00pm 11.9 9.5 7.1 72 2.3 E 9 11 5 6 1019.1 1019.0 0.2
12/09:30pm 14.1 11.3 6.9 62 3.5 E 11 15 6 8 1018.7 1018.6 0.2
12/09:00pm 15.0 11.4 6.6 57 4.1 ESE 15 19 8 10 1018.4 1018.3 0.2
12/08:30pm 15.5 11.1 6.7 55 4.3 ESE 19 28 10 15 1017.6 1017.6 0.2
12/08:00pm 16.2 12.5 6.4 52 4.8 ESE 15 19 8 10 1017.5 1017.5 0.2
12/07:30pm 16.5 12.0 6.8 52 4.8 ESE 20 28 11 15 1016.9 1016.9 0.2
12/07:00pm 17.7 13.0 5.3 44 6.0 ESE 19 26 10 14 1016.6 1016.6 0.2
12/06:30pm 18.4 14.2 5.8 43 6.2 ESE 17 24 9 13 1016.6 1016.6 0.2
12/06:00pm 18.6 14.6 6.6 45 6.0 E 17 22 9 12 1016.4 1016.4 0.2
12/05:30pm 18.4 15.6 7.1 47 5.7 SSW 11 15 6 8 1016.3 1016.3 0.2
12/05:00pm 17.9 14.7 6.9 48 5.5 S 13 19 7 10 1016.3 1016.3 0.2
12/04:30pm 18.4 15.5 6.6 46 5.9 SE 11 19 6 10 1016.3 1016.3 0.2
12/04:00pm 19.1 15.7 6.0 42 6.5 SSE 13 20 7 11 1016.4 1016.4 0.2
12/03:30pm 19.4 15.3 8.0 47 5.9 SE 19 30 10 16 1016.4 1016.4 0.2
12/03:00pm 18.6 14.7 6.9 46 5.9 ESE 17 26 9 14 1016.8 1016.8 0.2
12/02:30pm 18.2 15.1 7.1 48 5.6 SE 13 24 7 13 1017.4 1017.4 0.2
12/02:00pm 17.8 16.0 7.8 52 5.1 E 7 11 4 6 1017.9 1017.9 0.2
12/01:30pm 17.3 15.7 8.1 54 4.7 E 6 20 3 11 1018.2 1018.1 0.2
12/01:00pm 16.3 13.6 7.5 56 4.4 E 11 17 6 9 1018.4 1018.3 0.2
12/12:30pm 16.8 14.6 7.7 55 4.6 E 9 19 5 10 1018.7 1018.6 0.2
12/12:00pm 16.7 14.2 8.0 56 4.4 ESE 11 17 6 9 1019.0 1018.9 0.0
12/11:30am 15.7 13.5 7.7 59 4.0 E 9 15 5 8 1019.3 1019.2 0.0
12/11:00am 14.2 11.3 8.0 66 3.1 E 13 17 7 9 1019.4 1019.3 0.0
12/10:30am 13.9 11.3 7.9 67 3.0 ESE 11 15 6 8 1019.5 1019.4 0.0
12/10:00am 12.8 11.9 7.7 71 2.5 SSE 2 13 1 7 1019.6 1019.5 0.0
12/09:30am 11.4 10.5 7.9 79 1.7 WSW 2 9 1 5 1019.6 1019.5 0.0
12/09:00am 10.6 9.2 8.8 89 0.9 SW 6 9 3 5 1019.5 1019.4 9.6
12/08:30am 8.9 7.0 7.6 91 0.6 SW 7 9 4 5 1019.5 1019.4 9.6
12/08:00am 8.3 6.4 7.5 95 0.4 WNW 7 13 4 7 1019.2 1019.1 9.6
12/07:30am 8.4 6.4 7.1 91 0.6 NW 7 9 4 5 1019.2 1019.1 9.6
12/07:00am 7.8 7.2 7.4 97 0.2 CALM 0 0 0 0 1018.7 1018.6 9.6
12/06:30am 7.8 6.1 7.4 97 0.2 W 6 7 3 4 1018.4 1018.3 9.6
12/06:00am 8.1 5.1 7.7 97 0.2 WSW 13 15 7 8 1018.3 1018.2 9.6
12/05:30am 8.3 6.1 7.9 97 0.2 NNE 9 13 5 7 1018.1 1018.0 9.4

Other formats

Comma delimited format used in spreadsheet applications
http://www.bom.gov.au/fwo/IDV60801/IDV60801.94866.axf

JavaScript Object Notation format (JSON) in row-major order
http://www.bom.gov.au/fwo/IDV60801/IDV60801.94866.json

Data quality

Most of these data are generated automatically and are frequently updated. Quality checks on data are not normally performed. It is possible for incorrect values to appear. Refer to information at About Latest Weather Observations and please check the disclaimer before using these data.